Time;durP1;ratioP1;P1;durP2;ratioP2;P2;SDS_P1;SDS_P2;PMS_P1;PMS_P2;Temp;Humidity;BMP_temperature;BMP_pressure;BME280_temperature;BME280_humidity;BME280_pressure;Samples;Min_cycle;Max_cycle;Signal;HPM_P1;HPM_P2
2023/04/25 00:02:03;;;;;;;2.08;1.17;;;23.30;48.20;;;;;;5040173;28;20016;-69
2023/04/25 00:04:29;;;;;;;2.38;1.23;;;23.20;48.20;;;;;;5039162;28;20381;-69
2023/04/25 00:06:55;;;;;;;2.50;1.30;;;23.20;48.10;;;;;;5037290;28;20117;-69
2023/04/25 00:09:21;;;;;;;2.47;1.30;;;23.20;48.10;;;;;;5036400;28;20029;-68
2023/04/25 00:11:48;;;;;;;2.55;1.20;;;23.20;48.20;;;;;;5037432;28;20029;-69
2023/04/25 00:14:14;;;;;;;1.92;1.15;;;23.20;48.20;;;;;;5038362;28;20022;-70
2023/04/25 00:16:40;;;;;;;2.13;1.10;;;23.20;48.20;;;;;;5036913;28;20347;-68
2023/04/25 00:19:07;;;;;;;2.05;1.20;;;23.10;48.20;;;;;;5037489;28;20035;-69
2023/04/25 00:21:33;;;;;;;2.50;1.38;;;23.20;48.20;;;;;;5038194;28;20112;-68
2023/04/25 00:23:59;;;;;;;1.40;1.10;;;23.20;48.20;;;;;;5067762;28;20124;-69
2023/04/25 00:26:25;;;;;;;1.83;1.10;;;23.10;48.20;;;;;;5038646;28;20029;-69
2023/04/25 00:28:51;;;;;;;1.58;1.10;;;23.10;48.20;;;;;;5038836;28;20036;-68
2023/04/25 00:31:16;;;;;;;1.83;1.20;;;23.10;48.20;;;;;;5038015;28;20033;-68
2023/04/25 00:33:42;;;;;;;2.15;1.17;;;23.10;48.20;;;;;;5040420;28;20091;-68
2023/04/25 00:36:08;;;;;;;1.42;0.90;;;23.00;48.20;;;;;;5037995;28;20104;-68
2023/04/25 00:38:34;;;;;;;2.10;1.23;;;23.10;48.20;;;;;;5036313;28;20033;-69
2023/04/25 00:41:00;;;;;;;2.22;1.10;;;23.10;48.30;;;;;;5035822;28;20500;-70
2023/04/25 00:43:27;;;;;;;1.60;1.08;;;23.00;48.20;;;;;;5038349;28;20083;-69
2023/04/25 00:45:53;;;;;;;1.70;1.10;;;23.00;48.20;;;;;;5034807;28;20021;-69
2023/04/25 00:48:22;;;;;;;2.00;1.13;;;23.00;48.20;;;;;;5038713;28;20029;-68
2023/04/25 00:50:56;;;;;;;2.55;1.27;;;23.00;48.30;;;;;;5038703;28;20029;-68
2023/04/25 00:53:23;;;;;;;2.30;1.20;;;23.00;48.20;;;;;;5037627;28;20033;-69
2023/04/25 00:55:50;;;;;;;1.42;1.00;;;23.00;48.30;;;;;;5035565;28;20022;-68
2023/04/25 00:58:17;;;;;;;1.70;1.10;;;23.00;48.30;;;;;;5038649;28;20025;-69
2023/04/25 01:00:45;;;;;;;2.00;1.20;;;22.90;48.30;;;;;;5038347;28;20029;-69
2023/04/25 01:03:11;;;;;;;2.22;1.63;;;23.00;48.30;;;;;;5036997;28;20022;-69
2023/04/25 01:05:37;;;;;;;2.45;1.30;;;22.90;48.30;;;;;;5039337;28;20418;-68
2023/04/25 01:08:03;;;;;;;1.80;1.25;;;22.90;48.30;;;;;;5036533;28;20089;-68
2023/04/25 01:10:28;;;;;;;2.40;1.20;;;22.90;48.30;;;;;;5039345;28;20025;-69
2023/04/25 01:12:54;;;;;;;2.10;1.10;;;22.90;48.30;;;;;;5035509;28;20025;-69
2023/04/25 01:15:20;;;;;;;1.70;1.05;;;22.90;48.30;;;;;;5037690;28;20025;-69
2023/04/25 01:17:46;;;;;;;1.98;1.10;;;22.90;48.40;;;;;;5036591;28;20072;-69
2023/04/25 01:20:13;;;;;;;1.58;1.00;;;22.90;48.30;;;;;;5034899;28;20025;-69
2023/04/25 01:22:39;;;;;;;1.70;1.23;;;22.90;48.40;;;;;;5037496;28;20488;-68
2023/04/25 01:25:06;;;;;;;1.65;1.00;;;22.90;48.40;;;;;;5037375;28;20021;-68
2023/04/25 01:27:32;;;;;;;2.00;1.20;;;22.90;48.40;;;;;;5036113;28;20544;-68
2023/04/25 01:29:59;;;;;;;1.77;1.05;;;22.80;48.30;;;;;;5038549;28;20033;-68
2023/04/25 01:32:26;;;;;;;1.30;0.90;;;22.80;48.40;;;;;;5039018;28;20446;-68
2023/04/25 01:34:52;;;;;;;1.95;1.20;;;22.80;48.40;;;;;;5040051;28;20080;-68
2023/04/25 01:37:18;;;;;;;1.58;1.10;;;22.80;48.40;;;;;;5036680;28;20029;-69
2023/04/25 01:39:44;;;;;;;1.60;1.00;;;22.70;48.30;;;;;;5039297;28;20048;-68
2023/04/25 01:42:10;;;;;;;2.20;1.10;;;22.80;48.40;;;;;;5036109;28;20144;-68
2023/04/25 01:44:36;;;;;;;2.28;0.95;;;22.70;48.40;;;;;;5037410;28;20128;-69
2023/04/25 01:47:01;;;;;;;2.00;1.00;;;22.70;48.40;;;;;;5036778;28;20037;-69
2023/04/25 01:49:27;;;;;;;1.77;1.10;;;22.70;48.40;;;;;;5036272;28;20086;-69
2023/04/25 01:51:52;;;;;;;1.50;0.95;;;22.70;48.40;;;;;;5040617;28;20021;-69
2023/04/25 01:54:18;;;;;;;1.38;1.00;;;22.70;48.40;;;;;;5040470;28;20029;-68
2023/04/25 01:56:50;;;;;;;1.85;0.98;;;22.70;48.40;;;;;;5040374;28;20029;-68
2023/04/25 01:59:16;;;;;;;1.75;1.08;;;22.70;48.40;;;;;;5041114;28;20026;-68
2023/04/25 02:01:41;;;;;;;1.25;0.90;;;22.70;48.40;;;;;;5040705;28;20040;-68
2023/04/25 02:04:07;;;;;;;1.40;1.00;;;22.70;48.40;;;;;;5041001;28;20192;-68
2023/04/25 02:06:32;;;;;;;1.40;1.00;;;22.70;48.50;;;;;;5039737;28;20322;-68
2023/04/25 02:08:58;;;;;;;1.80;1.00;;;22.70;48.40;;;;;;5038644;28;20033;-68
2023/04/25 02:11:24;;;;;;;1.50;0.90;;;22.60;48.40;;;;;;5042247;28;20127;-68
2023/04/25 02:13:49;;;;;;;1.45;0.90;;;22.60;48.40;;;;;;5039968;28;20086;-68
2023/04/25 02:16:15;;;;;;;1.63;1.10;;;22.60;48.40;;;;;;5041800;28;20059;-68
2023/04/25 02:18:40;;;;;;;1.60;1.05;;;22.60;48.40;;;;;;5038593;28;20132;-69
2023/04/25 02:21:06;;;;;;;1.80;1.00;;;22.60;48.40;;;;;;5037630;28;20037;-69
2023/04/25 02:23:32;;;;;;;1.20;0.90;;;22.60;48.40;;;;;;5039260;28;20857;-69
2023/04/25 02:25:58;;;;;;;1.33;0.82;;;22.60;48.40;;;;;;5040922;28;20033;-69
2023/04/25 02:28:25;;;;;;;1.73;1.10;;;22.60;48.40;;;;;;5039288;28;20045;-68
2023/04/25 02:30:51;;;;;;;2.35;1.15;;;22.60;48.40;;;;;;5042138;28;20529;-68
2023/04/25 02:33:16;;;;;;;1.75;1.00;;;22.60;48.50;;;;;;5041220;28;20109;-67
2023/04/25 02:35:42;;;;;;;1.42;0.90;;;22.60;48.40;;;;;;5038777;28;20041;-68
2023/04/25 02:38:08;;;;;;;1.70;1.10;;;22.60;48.50;;;;;;5038015;28;20334;-68
2023/04/25 02:40:33;;;;;;;1.55;0.90;;;22.60;48.50;;;;;;5040253;28;20029;-68
2023/04/25 02:42:59;;;;;;;1.88;1.10;;;22.60;48.50;;;;;;5041492;28;20132;-68
2023/04/25 02:45:24;;;;;;;1.30;0.95;;;22.50;48.40;;;;;;5040467;28;20040;-69
2023/04/25 02:47:50;;;;;;;1.13;0.80;;;22.50;48.40;;;;;;5039549;28;20110;-69
2023/04/25 02:50:16;;;;;;;1.88;1.08;;;22.50;49.00;;;;;;5039321;28;20091;-68
2023/04/25 02:52:41;;;;;;;0.95;0.75;;;22.50;48.50;;;;;;5038295;28;20022;-68
2023/04/25 02:55:07;;;;;;;1.60;0.88;;;22.50;48.50;;;;;;5041938;28;20025;-69
2023/04/25 02:57:33;;;;;;;1.38;0.90;;;22.50;48.50;;;;;;5040522;28;20024;-69
2023/04/25 02:59:58;;;;;;;1.35;0.90;;;22.50;48.50;;;;;;5040487;28;20133;-68
2023/04/25 03:02:24;;;;;;;1.40;0.90;;;22.50;48.50;;;;;;5036908;28;20033;-68
2023/04/25 03:04:50;;;;;;;1.58;1.00;;;22.50;48.50;;;;;;5043152;28;20029;-69
2023/04/25 03:07:15;;;;;;;1.60;1.00;;;22.50;48.50;;;;;;5038936;28;20033;-70
2023/04/25 03:09:41;;;;;;;1.25;0.98;;;22.50;48.60;;;;;;5037668;28;20068;-69
2023/04/25 03:12:06;;;;;;;1.67;0.90;;;22.40;48.50;;;;;;5035716;28;20024;-69
2023/04/25 03:14:33;;;;;;;0.88;0.75;;;22.40;48.60;;;;;;5038821;28;20475;-69
2023/04/25 03:16:58;;;;;;;1.25;0.80;;;22.40;48.50;;;;;;5037903;28;20091;-69
2023/04/25 03:19:24;;;;;;;1.45;1.00;;;22.40;48.60;;;;;;5037785;28;20025;-70
2023/04/25 03:21:49;;;;;;;1.42;1.00;;;22.40;48.60;;;;;;5039202;28;20083;-69
2023/04/25 03:24:15;;;;;;;1.67;1.05;;;22.40;48.60;;;;;;5037763;28;20446;-69
2023/04/25 03:26:40;;;;;;;1.73;1.02;;;22.40;48.60;;;;;;5037507;28;20029;-68
2023/04/25 03:29:06;;;;;;;1.48;0.90;;;22.40;49.10;;;;;;5045891;28;20048;-68
2023/04/25 03:31:32;;;;;;;1.75;0.90;;;22.40;48.70;;;;;;5036291;28;20360;-67
2023/04/25 03:33:57;;;;;;;1.60;1.00;;;22.40;48.70;;;;;;5044998;28;20022;-68
2023/04/25 03:36:23;;;;;;;1.17;0.90;;;22.40;48.70;;;;;;5039635;28;20334;-68
2023/04/25 03:38:48;;;;;;;1.65;0.88;;;22.30;48.70;;;;;;5036238;28;20382;-68
2023/04/25 03:41:14;;;;;;;1.35;1.08;;;22.40;48.80;;;;;;5036678;28;20033;-69
2023/04/25 03:43:39;;;;;;;1.88;1.00;;;22.40;49.30;;;;;;5038458;28;20029;-68
2023/04/25 03:46:05;;;;;;;1.70;0.82;;;22.30;48.70;;;;;;5036729;28;20074;-68
2023/04/25 03:48:31;;;;;;;1.17;0.80;;;22.30;48.70;;;;;;5039587;28;20238;-68
2023/04/25 03:50:56;;;;;;;1.48;1.00;;;22.30;48.70;;;;;;5037701;28;20056;-67
2023/04/25 03:53:22;;;;;;;1.45;1.00;;;22.30;48.80;;;;;;5036638;28;20021;-69
2023/04/25 03:55:47;;;;;;;1.05;0.82;;;22.30;48.80;;;;;;5038996;28;20013;-68
2023/04/25 03:58:13;;;;;;;1.25;0.90;;;22.30;48.90;;;;;;5038852;28;20033;-68
2023/04/25 04:00:39;;;;;;;1.58;0.93;;;22.30;48.90;;;;;;5036174;28;20050;-67
2023/04/25 04:03:04;;;;;;;1.88;1.10;;;22.30;48.90;;;;;;5040180;28;20040;-69
2023/04/25 04:05:30;;;;;;;1.15;0.90;;;22.30;48.90;;;;;;5036372;28;20485;-69
2023/04/25 04:07:56;;;;;;;1.23;0.90;;;22.30;48.90;;;;;;5038628;28;20043;-68
2023/04/25 04:10:22;;;;;;;1.38;0.90;;;22.30;48.90;;;;;;5037370;28;20040;-69
2023/04/25 04:12:47;;;;;;;1.10;0.80;;;22.20;48.80;;;;;;5036052;28;20079;-69
2023/04/25 04:15:13;;;;;;;1.52;0.93;;;22.20;48.90;;;;;;5039098;28;20044;-69
2023/04/25 04:17:39;;;;;;;1.02;0.90;;;22.20;48.80;;;;;;5040977;28;20452;-68
2023/04/25 04:20:06;;;;;;;1.10;0.85;;;22.20;48.80;;;;;;5037910;28;20030;-68
2023/04/25 04:22:31;;;;;;;1.35;0.93;;;22.20;48.80;;;;;;5038663;28;20207;-68
2023/04/25 04:24:57;;;;;;;2.05;1.10;;;22.20;48.80;;;;;;5037292;28;20037;-68
2023/04/25 04:27:23;;;;;;;1.13;0.80;;;22.20;48.70;;;;;;5037699;28;20025;-68
2023/04/25 04:29:50;;;;;;;1.95;1.10;;;22.20;48.70;;;;;;5038742;28;20124;-69
2023/04/25 04:32:17;;;;;;;2.05;1.10;;;22.20;48.70;;;;;;5044157;28;20092;-68
2023/04/25 04:34:42;;;;;;;1.75;1.02;;;22.20;48.70;;;;;;5038928;28;20414;-68
2023/04/25 04:37:09;;;;;;;1.30;0.98;;;22.20;48.70;;;;;;5038880;28;20180;-66
2023/04/25 04:39:35;;;;;;;1.60;1.00;;;22.20;48.70;;;;;;5037535;28;20021;-68
2023/04/25 04:42:04;;;;;;;1.85;0.90;;;22.20;48.70;;;;;;5038001;28;20363;-68
2023/04/25 04:44:32;;;;;;;1.80;1.05;;;22.20;48.80;;;;;;5039318;28;20384;-67
2023/04/25 04:46:58;;;;;;;1.40;1.10;;;22.20;48.80;;;;;;5037174;28;20101;-68
2023/04/25 04:49:24;;;;;;;1.98;1.00;;;22.20;48.80;;;;;;5039108;28;20021;-67
2023/04/25 04:51:49;;;;;;;1.30;0.90;;;22.20;48.80;;;;;;5036992;28;20040;-67
2023/04/25 04:54:15;;;;;;;1.90;1.00;;;22.10;48.80;;;;;;5034738;28;20063;-67
2023/04/25 04:56:41;;;;;;;2.08;1.10;;;22.10;48.80;;;;;;5037584;28;20053;-68
2023/04/25 04:59:07;;;;;;;2.08;1.10;;;22.10;48.80;;;;;;5036858;28;20017;-67
2023/04/25 05:01:35;;;;;;;1.70;1.23;;;22.10;48.80;;;;;;5037065;28;20033;-68
2023/04/25 05:04:00;;;;;;;1.55;1.05;;;22.10;48.80;;;;;;5034880;28;20089;-68
2023/04/25 05:06:30;;;;;;;1.40;0.90;;;22.10;48.80;;;;;;5037546;28;20569;-68
2023/04/25 05:08:57;;;;;;;1.17;1.00;;;22.10;48.90;;;;;;5037118;28;20430;-68
2023/04/25 05:11:23;;;;;;;1.17;0.90;;;22.10;48.90;;;;;;5036562;28;20338;-68
2023/04/25 05:13:53;;;;;;;1.48;0.90;;;22.10;48.90;;;;;;5036927;28;20025;-68
2023/04/25 05:16:19;;;;;;;;;;;22.10;49.50;;;;;;5038556;28;20022;-68
2023/04/25 05:18:45;;;;;;;1.42;0.90;;;22.10;49.00;;;;;;5039049;28;19920;-67
2023/04/25 05:21:11;;;;;;;1.55;1.00;;;22.10;49.00;;;;;;5038227;28;20112;-68
2023/04/25 05:23:36;;;;;;;1.77;0.90;;;22.10;49.00;;;;;;5038230;28;20517;-68
2023/04/25 05:26:02;;;;;;;1.08;0.80;;;22.10;49.10;;;;;;5040564;28;20370;-68
2023/04/25 05:28:28;;;;;;;1.42;0.90;;;22.10;49.10;;;;;;5043189;28;20043;-68
2023/04/25 05:30:53;;;;;;;2.28;0.85;;;22.10;49.10;;;;;;5041560;28;20034;-68
2023/04/25 05:33:19;;;;;;;1.52;0.90;;;22.10;49.10;;;;;;5042530;28;20017;-66
2023/04/25 05:35:46;;;;;;;0.90;0.80;;;22.10;49.20;;;;;;5041868;28;20401;-67
2023/04/25 05:38:11;;;;;;;1.65;1.00;;;22.10;49.10;;;;;;5057855;28;20045;-67
2023/04/25 05:40:37;;;;;;;1.65;1.00;;;22.10;49.20;;;;;;5040168;28;20033;-66
2023/04/25 05:43:03;;;;;;;1.70;0.90;;;22.10;49.70;;;;;;5046861;28;20145;-66
2023/04/25 05:45:28;;;;;;;1.40;0.90;;;22.00;49.10;;;;;;5041389;28;20453;-66
2023/04/25 05:47:54;;;;;;;2.05;1.00;;;22.10;49.20;;;;;;5040561;28;20328;-66
2023/04/25 05:50:20;;;;;;;2.08;1.00;;;22.00;49.20;;;;;;5040457;28;20036;-67
2023/04/25 05:52:45;;;;;;;2.35;1.02;;;22.00;49.20;;;;;;5040430;28;20570;-67
2023/04/25 05:55:11;;;;;;;1.63;1.00;;;22.00;49.20;;;;;;5038499;28;20040;-66
2023/04/25 05:57:37;;;;;;;1.98;1.00;;;22.10;49.30;;;;;;5042014;28;20432;-66
2023/04/25 06:00:04;;;;;;;2.00;1.00;;;22.00;49.20;;;;;;5039208;28;20088;-67
2023/04/25 06:02:29;;;;;;;1.90;1.00;;;22.00;49.20;;;;;;5039713;28;20564;-66
2023/04/25 06:04:55;;;;;;;1.80;1.05;;;22.00;49.20;;;;;;5040200;28;20132;-67
2023/04/25 06:07:20;;;;;;;1.45;0.90;;;22.10;49.30;;;;;;5042034;28;20795;-67
2023/04/25 06:09:46;;;;;;;1.38;0.95;;;22.10;49.30;;;;;;5038786;28;20060;-67
2023/04/25 06:12:12;;;;;;;2.38;0.98;;;22.00;49.20;;;;;;5040263;28;20107;-66
2023/04/25 06:14:37;;;;;;;1.55;0.85;;;22.00;49.20;;;;;;5037242;28;20029;-66
2023/04/25 06:17:08;;;;;;;2.10;1.00;;;22.10;49.20;;;;;;5038649;28;20489;-67
2023/04/25 06:19:33;;;;;;;1.50;0.80;;;22.10;49.20;;;;;;5041091;28;20469;-66
2023/04/25 06:21:59;;;;;;;1.65;1.00;;;22.10;49.10;;;;;;5040427;28;20076;-66
2023/04/25 06:24:25;;;;;;;2.20;1.02;;;22.10;49.10;;;;;;5040284;28;20124;-66
2023/04/25 06:26:51;;;;;;;1.75;0.90;;;22.10;49.10;;;;;;5040724;28;20029;-66
2023/04/25 06:29:16;;;;;;;2.15;1.00;;;22.10;49.10;;;;;;5040938;28;20052;-67
2023/04/25 06:31:42;;;;;;;1.73;1.00;;;22.10;49.10;;;;;;5040680;28;20045;-67
2023/04/25 06:34:07;;;;;;;1.80;1.02;;;22.00;49.10;;;;;;5039401;28;20429;-66
2023/04/25 06:36:33;;;;;;;3.25;1.10;;;22.10;49.10;;;;;;5038682;28;20052;-67
2023/04/25 06:38:58;;;;;;;1.65;0.93;;;22.00;49.10;;;;;;5037082;28;20406;-66
2023/04/25 06:41:24;;;;;;;1.77;0.95;;;22.00;49.10;;;;;;5038618;28;20330;-67
2023/04/25 06:43:50;;;;;;;2.08;0.95;;;22.00;49.10;;;;;;5037652;28;20025;-66
2023/04/25 06:46:15;;;;;;;1.90;1.10;;;22.00;49.10;;;;;;5040312;28;20048;-66
2023/04/25 06:48:41;;;;;;;2.53;1.08;;;22.00;49.20;;;;;;5038197;28;20496;-67
2023/04/25 06:51:06;;;;;;;1.98;1.00;;;22.00;49.10;;;;;;5046560;28;20060;-67
2023/04/25 06:53:32;;;;;;;1.92;1.05;;;22.00;49.20;;;;;;5037905;28;20034;-66
2023/04/25 06:55:58;;;;;;;2.08;0.90;;;22.00;49.10;;;;;;5035529;28;20112;-67
2023/04/25 06:58:23;;;;;;;2.00;1.15;;;22.00;49.10;;;;;;5037213;28;20025;-67
2023/04/25 07:00:49;;;;;;;3.05;1.10;;;22.10;49.20;;;;;;5040436;28;20022;-67
2023/04/25 07:03:14;;;;;;;2.10;1.20;;;22.00;49.10;;;;;;5037724;28;20025;-66
2023/04/25 07:05:40;;;;;;;1.85;1.10;;;22.00;49.20;;;;;;5039751;28;20112;-66
2023/04/25 07:08:06;;;;;;;2.08;1.02;;;22.00;49.10;;;;;;5038004;28;20025;-66
2023/04/25 07:10:31;;;;;;;1.85;1.10;;;22.00;49.10;;;;;;5037668;28;20041;-67
2023/04/25 07:12:57;;;;;;;2.72;1.10;;;22.00;49.20;;;;;;5039077;28;20112;-67
2023/04/25 07:15:22;;;;;;;2.53;1.20;;;22.00;49.20;;;;;;5039452;28;20095;-67
2023/04/25 07:17:48;;;;;;;2.30;1.30;;;22.00;49.20;;;;;;5038059;28;20453;-67
2023/04/25 07:20:14;;;;;;;1.67;0.98;;;22.00;49.20;;;;;;5040074;28;20459;-67
2023/04/25 07:22:39;;;;;;;2.33;1.05;;;22.00;49.20;;;;;;5037364;28;20290;-67
2023/04/25 07:25:05;;;;;;;1.73;1.10;;;22.00;49.70;;;;;;5040370;28;20033;-67
2023/04/25 07:27:31;;;;;;;1.83;1.00;;;22.00;49.20;;;;;;5040736;28;20430;-67
2023/04/25 07:29:57;;;;;;;2.38;1.00;;;22.00;49.20;;;;;;5038028;28;20040;-66
2023/04/25 07:32:22;;;;;;;2.63;1.27;;;22.00;49.20;;;;;;5039412;28;20041;-66
2023/04/25 07:34:48;;;;;;;2.33;1.20;;;22.00;49.20;;;;;;5038535;28;20025;-66
2023/04/25 07:37:14;;;;;;;3.25;1.40;;;22.00;49.20;;;;;;5039324;28;20135;-66
2023/04/25 07:39:40;;;;;;;1.50;1.08;;;22.00;49.20;;;;;;5037890;28;20415;-66
2023/04/25 07:42:07;;;;;;;1.48;1.10;;;22.00;49.20;;;;;;5036810;28;20029;-67
2023/04/25 07:44:38;;;;;;;2.00;1.02;;;22.00;49.20;;;;;;5039330;28;20116;-66
2023/04/25 07:47:06;;;;;;;1.98;1.02;;;22.00;49.20;;;;;;5036445;28;20579;-67
2023/04/25 07:49:33;;;;;;;1.58;1.00;;;22.10;49.20;;;;;;5040640;28;20477;-67
2023/04/25 07:51:59;;;;;;;2.47;1.20;;;22.10;49.10;;;;;;5034992;28;20128;-67
2023/04/25 07:54:25;;;;;;;2.55;1.30;;;22.10;49.10;;;;;;5039179;28;20112;-66
2023/04/25 07:56:50;;;;;;;2.05;1.00;;;22.10;49.10;;;;;;5036801;28;20064;-67
2023/04/25 07:59:16;;;;;;;2.47;1.33;;;22.10;49.10;;;;;;5037987;28;20148;-67
2023/04/25 08:01:41;;;;;;;2.70;1.30;;;22.10;49.10;;;;;;5038159;28;20357;-67
2023/04/25 08:04:07;;;;;;;2.17;1.02;;;22.10;49.20;;;;;;5039099;28;20036;-67
2023/04/25 08:06:32;;;;;;;1.83;1.00;;;22.10;49.20;;;;;;5037848;28;20033;-66
2023/04/25 08:08:58;;;;;;;2.28;1.23;;;22.10;49.20;;;;;;5038426;28;20030;-67
2023/04/25 08:11:25;;;;;;;1.88;1.20;;;22.10;49.30;;;;;;5031801;28;20033;-67
2023/04/25 08:13:50;;;;;;;2.00;1.10;;;22.10;49.20;;;;;;5037121;28;20454;-67
2023/04/25 08:16:16;;;;;;;2.25;1.35;;;22.10;49.30;;;;;;5036695;28;20039;-67
2023/04/25 08:18:41;;;;;;;3.17;1.63;;;22.10;49.30;;;;;;5038432;28;20108;-68
2023/04/25 08:21:08;;;;;;;3.42;1.25;;;22.10;49.30;;;;;;5036363;28;20795;-67
2023/04/25 08:23:34;;;;;;;3.35;1.40;;;22.10;49.40;;;;;;5034803;28;20025;-67
2023/04/25 08:26:00;;;;;;;3.08;1.40;;;22.10;49.40;;;;;;5036088;28;20021;-68
2023/04/25 08:28:25;;;;;;;3.17;1.30;;;22.10;49.40;;;;;;5035963;28;20134;-67
2023/04/25 08:30:51;;;;;;;2.35;1.15;;;22.10;49.40;;;;;;5037533;28;20029;-68
2023/04/25 08:33:16;;;;;;;2.70;1.40;;;22.10;49.40;;;;;;5044705;28;20421;-68
2023/04/25 08:35:43;;;;;;;2.28;1.20;;;22.10;49.40;;;;;;5038028;28;20132;-68
2023/04/25 08:38:09;;;;;;;3.28;1.60;;;22.10;49.50;;;;;;5038265;28;20022;-67
2023/04/25 08:40:38;;;;;;;2.35;1.35;;;22.10;49.50;;;;;;5035456;28;20551;-67
2023/04/25 08:43:11;;;;;;;2.25;1.27;;;22.10;49.50;;;;;;5037441;28;20051;-68
2023/04/25 08:45:41;;;;;;;2.67;1.15;;;22.10;49.90;;;;;;5037962;28;20029;-68
2023/04/25 08:48:11;;;;;;;3.03;1.40;;;22.10;49.40;;;;;;5038451;28;20033;-68
2023/04/25 08:50:49;;;;;;;2.22;1.33;;;22.20;49.50;;;;;;5040155;28;20040;-68
2023/04/25 08:53:18;;;;;;;2.30;1.30;;;22.10;49.40;;;;;;5039333;28;20403;-67
2023/04/25 08:55:45;;;;;;;2.17;1.20;;;22.20;49.40;;;;;;5037402;28;20579;-68
2023/04/25 08:58:12;;;;;;;2.53;1.60;;;22.20;49.40;;;;;;5039115;28;20099;-67
2023/04/25 09:00:38;;;;;;;2.90;1.27;;;22.20;49.40;;;;;;5043733;28;20428;-68
2023/04/25 09:03:03;;;;;;;2.95;1.38;;;22.20;49.50;;;;;;5042434;28;20025;-68
2023/04/25 09:05:29;;;;;;;3.35;1.50;;;22.20;49.50;;;;;;5043279;28;20020;-68
2023/04/25 09:07:56;;;;;;;2.20;1.20;;;22.20;49.40;;;;;;5037544;28;20097;-68
2023/04/25 09:10:22;;;;;;;2.30;1.30;;;22.20;49.40;;;;;;5040180;28;20219;-67
2023/04/25 09:13:12;;;;;;;2.72;1.35;;;22.20;49.40;;;;;;5041116;28;20082;-66
2023/04/25 09:15:52;;;;;;;3.15;1.38;;;22.20;49.40;;;;;;5042373;28;20053;-67
2023/04/25 09:18:25;;;;;;;2.45;1.30;;;22.20;49.40;;;;;;5043445;28;20471;-67
2023/04/25 09:20:52;;;;;;;3.00;1.40;;;22.20;49.40;;;;;;5040076;28;20021;-67
2023/04/25 09:23:21;;;;;;;2.20;1.33;;;22.20;49.40;;;;;;5039484;28;20048;-67
2023/04/25 09:25:52;;;;;;;2.03;1.13;;;22.20;49.40;;;;;;5038726;28;20469;-67
2023/04/25 09:28:24;;;;;;;2.45;1.20;;;22.20;49.40;;;;;;5040967;28;20037;-67
2023/04/25 09:30:56;;;;;;;2.03;1.20;;;22.20;49.40;;;;;;5040784;28;20120;-67
2023/04/25 09:33:31;;;;;;;2.40;1.23;;;22.20;49.40;;;;;;5043636;28;20017;-67
2023/04/25 09:36:08;;;;;;;2.10;1.10;;;22.20;49.40;;;;;;5042471;28;20036;-66
2023/04/25 09:38:53;;;;;;;2.55;1.27;;;22.20;49.40;;;;;;5041787;28;20045;-67
2023/04/25 09:41:24;;;;;;;2.10;1.20;;;22.20;49.40;;;;;;5039511;28;20546;-67
2023/04/25 09:43:50;;;;;;;2.13;1.20;;;22.20;49.30;;;;;;5038436;28;20443;-67
2023/04/25 09:46:18;;;;;;;2.42;1.50;;;22.20;49.30;;;;;;5040238;28;20045;-67
2023/04/25 09:48:50;;;;;;;2.42;1.13;;;22.20;49.30;;;;;;5041583;28;20021;-67
2023/04/25 09:51:16;;;;;;;2.10;1.30;;;22.20;49.30;;;;;;5039737;28;20530;-67
2023/04/25 09:53:46;;;;;;;2.30;1.13;;;22.20;49.40;;;;;;5041258;28;20188;-67
2023/04/25 09:56:12;;;;;;;;;;;22.20;49.30;;;;;;5038390;28;20371;-67
2023/04/25 09:58:39;;;;;;;1.65;1.00;;;22.20;49.40;;;;;;5038752;28;19964;-67
2023/04/25 10:01:07;;;;;;;2.17;1.25;;;22.20;49.40;;;;;;5043050;28;20492;-67
2023/04/25 10:03:35;;;;;;;2.00;1.35;;;22.20;49.30;;;;;;5053228;28;20029;-67
2023/04/25 10:06:04;;;;;;;2.00;1.13;;;22.20;49.30;;;;;;5039885;28;20041;-67
2023/04/25 10:08:34;;;;;;;2.00;1.15;;;22.20;49.40;;;;;;5040295;28;20086;-67
2023/04/25 10:11:02;;;;;;;2.58;1.20;;;22.20;49.40;;;;;;5039391;28;20044;-67
2023/04/25 10:13:30;;;;;;;2.33;1.20;;;22.20;49.40;;;;;;5039294;28;20478;-68
2023/04/25 10:16:01;;;;;;;2.03;1.00;;;22.20;49.30;;;;;;5040556;28;20029;-66
2023/04/25 10:18:27;;;;;;;2.70;1.17;;;22.20;49.40;;;;;;5038035;28;20040;-67
2023/04/25 10:20:59;;;;;;;2.17;1.00;;;22.20;49.40;;;;;;5042387;28;20133;-67
2023/04/25 10:23:26;;;;;;;2.33;1.20;;;22.20;49.40;;;;;;5038954;28;20079;-67
2023/04/25 10:25:52;;;;;;;1.85;1.20;;;22.20;49.30;;;;;;5037843;28;20045;-67
2023/04/25 10:28:18;;;;;;;1.65;1.02;;;22.20;49.30;;;;;;5039213;28;20512;-67
2023/04/25 10:31:05;;;;;;;1.88;1.20;;;22.20;49.30;;;;;;5040422;28;20048;-68
2023/04/25 10:33:35;;;;;;;1.98;1.00;;;22.20;49.30;;;;;;5051016;28;20045;-67
2023/04/25 10:36:17;;;;;;;1.98;1.05;;;22.20;49.30;;;;;;5039970;28;20029;-67
2023/04/25 10:38:43;;;;;;;1.45;1.00;;;22.20;49.30;;;;;;5036855;28;20030;-68
2023/04/25 10:41:10;;;;;;;1.70;1.00;;;22.20;49.30;;;;;;5038109;28;20029;-68
2023/04/25 10:43:44;;;;;;;2.05;0.98;;;22.30;49.40;;;;;;5038366;28;20047;-68
2023/04/25 10:46:18;;;;;;;2.10;1.10;;;22.30;49.40;;;;;;5039680;28;20024;-68
2023/04/25 10:48:48;;;;;;;1.83;1.10;;;22.20;49.30;;;;;;5040777;28;20107;-67
2023/04/25 10:51:27;;;;;;;1.95;1.10;;;22.20;49.30;;;;;;5037663;28;20033;-68
2023/04/25 10:53:55;;;;;;;2.67;1.20;;;22.20;49.30;;;;;;5040614;28;20028;-67
2023/04/25 10:56:44;;;;;;;1.77;1.00;;;22.30;49.40;;;;;;5036312;28;20546;-68
2023/04/25 10:59:13;;;;;;;2.00;1.02;;;22.30;49.40;;;;;;5035924;28;20593;-68
2023/04/25 11:01:39;;;;;;;1.60;1.02;;;22.30;49.40;;;;;;5038742;28;20385;-68
2023/04/25 11:04:05;;;;;;;1.80;1.00;;;22.20;49.30;;;;;;5042247;28;20033;-68
2023/04/25 11:06:49;;;;;;;1.63;1.00;;;22.20;49.30;;;;;;5036263;28;20033;-68
2023/04/25 11:09:15;;;;;;;2.85;1.20;;;22.30;49.40;;;;;;5037984;28;20029;-69
2023/04/25 11:11:41;;;;;;;1.88;1.10;;;22.20;49.30;;;;;;5035068;28;20028;-69
2023/04/25 11:14:07;;;;;;;2.15;1.00;;;22.30;49.30;;;;;;5038284;28;20112;-69
2023/04/25 11:16:32;;;;;;;1.67;0.95;;;22.30;49.30;;;;;;5037022;28;20466;-68
2023/04/25 11:18:58;;;;;;;1.60;1.05;;;22.30;49.30;;;;;;5038336;28;20908;-68
2023/04/25 11:21:31;;;;;;;1.77;0.98;;;22.30;49.30;;;;;;5042112;28;20043;-68
2023/04/25 11:23:57;;;;;;;1.70;0.90;;;22.20;49.20;;;;;;5039054;28;20027;-68
2023/04/25 11:26:25;;;;;;;1.70;1.00;;;22.30;49.10;;;;;;5042920;28;20025;-68
2023/04/25 11:28:50;;;;;;;1.92;1.10;;;22.30;49.20;;;;;;5039598;28;20084;-68
2023/04/25 11:31:19;;;;;;;2.35;1.05;;;22.20;49.10;;;;;;5037941;28;20485;-67
2023/04/25 11:33:46;;;;;;;1.15;0.80;;;22.20;49.10;;;;;;5041300;28;20033;-68
2023/04/25 11:36:12;;;;;;;2.13;1.10;;;22.30;49.20;;;;;;5040831;28;20616;-68
2023/04/25 11:38:37;;;;;;;1.50;1.00;;;22.30;49.20;;;;;;5036730;28;20024;-67
2023/04/25 11:41:03;;;;;;;1.85;1.10;;;22.20;49.10;;;;;;5040646;28;20057;-67
2023/04/25 11:43:28;;;;;;;1.58;0.90;;;22.20;49.20;;;;;;5037401;28;20488;-68
2023/04/25 11:45:54;;;;;;;1.30;1.00;;;22.30;49.20;;;;;;5038275;28;20024;-68
2023/04/25 11:48:20;;;;;;;1.73;1.02;;;22.30;49.20;;;;;;5038625;28;20041;-67
2023/04/25 11:50:45;;;;;;;2.38;1.00;;;22.20;49.10;;;;;;5037909;28;20044;-68
2023/04/25 11:53:11;;;;;;;1.65;0.98;;;22.30;49.10;;;;;;5040032;28;20093;-68
2023/04/25 11:55:37;;;;;;;1.70;0.90;;;22.30;49.20;;;;;;5044025;28;20130;-67
2023/04/25 11:58:04;;;;;;;1.52;0.90;;;22.30;49.20;;;;;;5038317;28;20029;-68
2023/04/25 12:00:30;;;;;;;1.40;0.90;;;22.30;49.20;;;;;;5037385;28;20035;-68
2023/04/25 12:03:02;;;;;;;1.58;0.90;;;22.30;49.20;;;;;;5046065;28;20045;-68
2023/04/25 12:05:30;;;;;;;2.55;1.13;;;22.30;49.20;;;;;;5038066;28;20026;-68
2023/04/25 12:07:56;;;;;;;1.48;1.00;;;22.30;49.20;;;;;;5037655;28;20040;-68
2023/04/25 12:10:24;;;;;;;2.03;1.20;;;22.30;49.20;;;;;;5037801;28;20497;-68
2023/04/25 12:12:49;;;;;;;1.92;1.10;;;22.30;49.20;;;;;;5035509;28;20100;-68
2023/04/25 12:15:26;;;;;;;1.88;1.08;;;22.30;49.30;;;;;;5039942;28;20048;-68
2023/04/25 12:17:54;;;;;;;1.52;1.00;;;22.30;49.40;;;;;;5038699;28;20481;-68
2023/04/25 12:20:23;;;;;;;1.98;1.20;;;22.30;49.40;;;;;;5038432;28;20515;-68
2023/04/25 12:22:49;;;;;;;;;;;22.30;49.40;;;;;;5038510;28;20029;-67
2023/04/25 12:25:44;;;;;;;1.70;1.02;;;22.30;49.40;;;;;;5036954;28;20253;-69
2023/04/25 12:28:23;;;;;;;1.42;0.95;;;22.30;49.50;;;;;;5038538;28;20064;-69
2023/04/25 12:31:07;;;;;;;1.50;1.00;;;22.30;49.40;;;;;;5037201;28;20384;-68
2023/04/25 12:33:37;;;;;;;2.00;1.00;;;22.30;49.40;;;;;;5037005;28;20029;-68
2023/04/25 12:36:08;;;;;;;1.50;0.95;;;22.30;49.30;;;;;;5039618;28;20115;-68
2023/04/25 12:38:42;;;;;;;1.65;0.90;;;22.30;49.20;;;;;;5035967;28;20434;-67
2023/04/25 12:41:07;;;;;;;1.73;0.95;;;22.30;49.20;;;;;;5034271;28;20468;-68
2023/04/25 12:43:34;;;;;;;1.65;0.95;;;22.30;49.20;;;;;;5035373;28;20051;-67
2023/04/25 12:46:00;;;;;;;1.67;0.80;;;22.30;49.10;;;;;;5034732;28;20107;-66
2023/04/25 12:48:26;;;;;;;1.60;1.00;;;22.30;49.10;;;;;;5035911;28;20029;-66